Jeffersonville, Georgia
Current Conditions -  °F | °C
As of 10:13 PM on Tuesday 25 Nov 2014 (Local Time) from KWRB Reporting Station
Light Rain Light Rain  
Wind Chill: 42°   Ceiling: 3700
Heat Index: 46°   Visibility: 10mi
Dew Point: 45°   Wind: 8mph
Humidity: 93%   Direction: 330°NNW
Pressure: 30.04"   Gusts: NA
Location:  32.69°N, 83.35°W
Report Text: KWRB 260313Z AUTO 33007KT 10SM -RA BKN037 OVC044 08/07 A3004 RMK AO2
Loading
Personal Weather Stations






























Interactive Weather Map New forecast layout! Learn more

10-Day Weather Forecast

Advertisements
Track Severe Weather on mobile